createdAt,value
2018-09-19T00:03:33.452Z,82.800003
2018-09-19T00:08:35.780Z,81.699997
2018-09-19T00:13:38.103Z,82.699997
2018-09-19T00:18:40.297Z,83.099998
2018-09-19T00:23:42.706Z,81.5
2018-09-19T00:28:45.042Z,81.699997
2018-09-19T00:33:47.403Z,85
2018-09-19T00:38:49.503Z,86.199997
2018-09-19T00:43:51.936Z,86.099998
2018-09-19T00:48:54.041Z,86.300003
2018-09-19T00:53:56.442Z,85.5
2018-09-19T00:58:58.608Z,86.099998
2018-09-19T01:04:01.117Z,86.300003
2018-09-19T01:09:03.387Z,86.099998
2018-09-19T01:14:05.688Z,86.300003
2018-09-19T01:19:07.938Z,86.300003
2018-09-19T01:24:10.216Z,86.400002
2018-09-19T01:29:12.469Z,86.400002
2018-09-19T01:34:14.786Z,85.5
2018-09-19T01:39:17.136Z,86.599998
2018-09-19T01:44:19.319Z,85.400002
2018-09-19T01:49:21.638Z,84.599998
2018-09-19T01:54:23.886Z,83.400002
2018-09-19T01:59:26.615Z,83.400002
2018-09-19T02:04:28.559Z,83.599998
2018-09-19T02:09:30.823Z,84.199997
2018-09-19T02:14:33.078Z,84.699997
2018-09-19T02:19:35.438Z,85.199997
2018-09-19T02:24:37.714Z,87
2018-09-19T02:29:39.931Z,92.599998
2018-09-19T02:34:42.279Z,91.699997
2018-09-19T02:39:44.562Z,89.599998
2018-09-19T02:49:49.164Z,94.800003
2018-09-19T02:54:51.537Z,95.400002
2018-09-19T02:59:53.805Z,95.599998
2018-09-19T03:04:55.967Z,94.5
2018-09-19T03:09:58.385Z,94.300003
2018-09-19T03:15:00.627Z,93.900002
2018-09-19T03:20:03.195Z,93
2018-09-19T03:25:05.225Z,92.800003
2018-09-19T03:30:07.585Z,92.5
2018-09-19T03:35:09.820Z,93
2018-09-19T03:40:12.241Z,92.900002
2018-09-19T03:45:14.432Z,93.099998
2018-09-19T03:50:16.795Z,93.5
2018-09-19T03:55:18.998Z,94.199997
2018-09-19T04:00:21.252Z,94.5
2018-09-19T04:05:23.647Z,95.5
2018-09-19T04:10:26.106Z,95.199997
2018-09-19T04:15:28.089Z,95
2018-09-19T04:20:30.467Z,94.699997
2018-09-19T04:25:32.777Z,95
2018-09-19T04:30:35.158Z,95.5
2018-09-19T04:35:37.483Z,97
2018-09-19T04:40:39.668Z,97.099998
2018-09-19T04:45:42.126Z,97.400002
2018-09-19T04:50:44.201Z,97.699997
2018-09-19T04:55:46.576Z,97.900002
2018-09-19T05:00:48.868Z,97.5
2018-09-19T05:05:51.242Z,97.800003
2018-09-19T05:10:53.433Z,97.699997
2018-09-19T05:15:55.679Z,98.400002
2018-09-19T05:20:58.022Z,99.400002
2018-09-19T05:26:00.376Z,99.699997
2018-09-19T05:31:02.710Z,99.699997
2018-09-19T05:36:04.965Z,99.800003
2018-09-19T05:41:07.108Z,99.800003
2018-09-19T05:46:09.498Z,99.900002
2018-09-19T05:51:11.961Z,99.900002
2018-09-19T05:56:14.077Z,99.900002
2018-09-19T06:01:16.333Z,99.800003
2018-09-19T06:06:18.655Z,99.5
2018-09-19T06:11:20.880Z,98.900002
2018-09-19T06:16:23.496Z,97.900002
2018-09-19T06:21:25.542Z,96.800003
2018-09-19T06:36:32.619Z,94.099998
2018-09-19T06:41:34.719Z,93.400002
2018-09-19T06:46:37.040Z,92.599998
2018-09-19T06:51:39.216Z,92.199997
2018-09-19T06:56:41.575Z,91.199997
2018-09-19T07:01:43.796Z,90.599998
2018-09-19T07:06:46.495Z,90.199997
2018-09-19T07:11:48.465Z,88.599998
2018-09-19T07:16:50.689Z,86.699997
2018-09-19T07:21:53.042Z,84.099998
2018-09-19T07:26:55.661Z,82.199997
2018-09-19T07:31:57.651Z,82.400002
2018-09-19T07:36:59.879Z,79.900002
2018-09-19T07:42:02.218Z,77.699997
2018-09-19T07:47:04.558Z,77.599998
2018-09-19T07:52:06.742Z,78
2018-09-19T07:57:09.170Z,77.699997
2018-09-19T08:02:11.494Z,78
2018-09-19T08:07:13.719Z,76.400002
2018-09-19T08:12:16.015Z,76
2018-09-19T08:17:18.352Z,74.800003
2018-09-19T08:22:20.605Z,74.400002
2018-09-19T08:27:22.808Z,73.199997
2018-09-19T08:32:25.112Z,72.300003
2018-09-19T08:37:27.453Z,71.5
2018-09-19T08:47:32.171Z,69.300003
2018-09-19T08:52:34.351Z,69.599998
2018-09-19T08:57:36.746Z,67.199997
2018-09-19T09:02:39.104Z,67
2018-09-19T09:07:41.176Z,66
2018-09-19T09:12:43.537Z,64.5
2018-09-19T09:17:45.984Z,64.5
2018-09-19T09:22:48.141Z,64.099998
2018-09-19T09:27:50.454Z,64.699997
2018-09-19T09:32:52.804Z,62.5
2018-09-19T09:37:55.006Z,61
2018-09-19T09:42:57.286Z,58
2018-09-19T09:47:59.683Z,57.900002
2018-09-19T09:53:01.792Z,58.700001
2018-09-19T09:58:04.567Z,58.900002
2018-09-19T10:03:06.472Z,58.900002
2018-09-19T10:08:08.716Z,58
2018-09-19T10:13:11.097Z,58
2018-09-19T10:18:13.303Z,55.799999
2018-09-19T10:23:15.565Z,53.200001
2018-09-19T10:28:17.950Z,50.099998
2018-09-19T10:33:20.281Z,51.299999
2018-09-19T10:38:22.487Z,49.700001
2018-09-19T10:43:24.789Z,47.099998
2018-09-19T10:48:27.156Z,47.099998
2018-09-19T10:53:29.385Z,46.700001
2018-09-19T10:58:31.726Z,45.599998
2018-09-19T11:03:34.022Z,44.400002
2018-09-19T11:08:36.398Z,43.200001
2018-09-19T11:13:38.625Z,43.700001
2018-09-19T11:18:40.880Z,43.400002
2018-09-19T11:23:43.090Z,43.900002
2018-09-19T11:28:45.408Z,41.099998
2018-09-19T11:33:47.782Z,41.400002
2018-09-19T11:38:51.057Z,37.5
2018-09-19T11:43:52.419Z,36.900002
2018-09-19T11:48:54.695Z,36.700001
2018-09-19T11:53:56.939Z,37.400002
2018-09-19T11:58:59.215Z,35.799999
2018-09-19T12:04:01.538Z,35.099998
2018-09-19T12:09:03.856Z,37.099998
2018-09-19T12:14:06.175Z,35.200001
2018-09-19T12:19:08.369Z,34.299999
2018-09-19T12:24:10.972Z,33.299999
2018-09-19T12:29:12.936Z,33.900002
2018-09-19T12:34:15.296Z,33.700001
2018-09-19T12:39:17.606Z,34.299999
2018-09-19T12:44:19.846Z,33.799999
2018-09-19T12:49:22.290Z,35.5
2018-09-19T12:54:24.575Z,33.799999
2018-09-19T12:59:26.744Z,33.299999
2018-09-19T13:04:29.029Z,32.700001
2018-09-19T13:09:31.320Z,34.400002
2018-09-19T13:14:33.686Z,32.900002
2018-09-19T13:19:35.919Z,34.200001
2018-09-19T13:24:38.509Z,33.299999
2018-09-19T13:29:40.691Z,33.700001
2018-09-19T13:34:42.778Z,33.5
2018-09-19T13:39:45.129Z,33.599998
2018-09-19T13:44:47.462Z,34.799999
2018-09-19T13:49:49.642Z,33.799999
2018-09-19T13:54:52.181Z,33.900002
2018-09-19T13:59:54.469Z,35.400002
2018-09-19T14:04:56.566Z,34.400002
2018-09-19T14:09:58.908Z,35.599998
2018-09-19T14:15:01.300Z,35.099998
2018-09-19T14:20:03.443Z,35
2018-09-19T14:25:05.810Z,35.099998
2018-09-19T14:30:08.013Z,36.099998
2018-09-19T14:35:10.358Z,36.200001
2018-09-19T14:40:12.785Z,37.400002
2018-09-19T14:45:14.915Z,37.400002
2018-09-19T14:50:17.247Z,38.200001
2018-09-19T14:55:19.656Z,37.799999
2018-09-19T15:00:21.869Z,38.400002
2018-09-19T15:05:24.176Z,39.200001
2018-09-19T15:10:27.370Z,39.5
2018-09-19T15:15:28.797Z,40
2018-09-19T15:20:31.285Z,39.299999
2018-09-19T15:25:33.402Z,40.400002
2018-09-19T15:30:35.608Z,41.5
2018-09-19T15:40:40.196Z,43.200001
2018-09-19T15:45:42.478Z,43.5
2018-09-19T15:50:44.967Z,43.400002
2018-09-19T15:55:47.037Z,43.599998
2018-09-19T16:00:49.338Z,44.200001
2018-09-19T16:05:52.042Z,44.5
2018-09-19T16:10:54.007Z,43.900002
2018-09-19T16:15:56.236Z,42.799999
2018-09-19T16:20:58.766Z,42.099998
2018-09-19T16:26:01.016Z,42.5
2018-09-19T16:31:03.202Z,44.900002
2018-09-19T16:36:05.389Z,45.400002
2018-09-19T16:41:07.815Z,46.700001
2018-09-19T16:46:09.967Z,47.799999
2018-09-19T16:51:12.391Z,47.900002
2018-09-19T16:56:14.738Z,48.700001
2018-09-19T17:01:16.927Z,49.299999
2018-09-19T17:06:19.234Z,49.599998
2018-09-19T17:11:21.616Z,50
2018-09-19T17:16:23.963Z,50.400002
2018-09-19T17:21:26.130Z,50.700001
2018-09-19T17:26:28.409Z,51
2018-09-19T17:31:30.637Z,51.599998
2018-09-19T17:36:32.984Z,51.700001
2018-09-19T17:41:35.294Z,52
2018-09-19T17:46:37.489Z,52.299999
2018-09-19T17:51:39.866Z,52.5
2018-09-19T17:56:42.216Z,52.799999
2018-09-19T18:01:44.395Z,53.200001
2018-09-19T18:06:46.846Z,53.900002
2018-09-19T18:11:49.048Z,54.200001
2018-09-19T18:16:51.368Z,54.700001
2018-09-19T18:21:53.639Z,54.900002
2018-09-19T18:26:55.818Z,55.400002
2018-09-19T18:31:58.292Z,56
2018-09-19T18:37:00.553Z,56.5
2018-09-19T18:42:02.780Z,57.099998
2018-09-19T18:47:05.134Z,57.5
2018-09-19T18:52:07.336Z,57.799999
2018-09-19T18:57:09.724Z,58.400002
2018-09-19T19:02:12.116Z,59
2018-09-19T19:07:14.196Z,59.400002
2018-09-19T19:12:16.599Z,59.400002
2018-09-19T19:17:19.104Z,59.599998
2018-09-19T19:22:21.228Z,59.799999
2018-09-19T19:27:23.435Z,59.900002
2018-09-19T19:32:25.756Z,60.099998
2018-09-19T19:37:28.055Z,60.599998
2018-09-19T19:42:30.368Z,60.900002
2018-09-19T19:47:32.668Z,61.099998
2018-09-19T19:52:35.181Z,61.299999
2018-09-19T19:57:37.214Z,61
2018-09-19T20:02:39.685Z,61.200001
2018-09-19T20:07:41.972Z,61.5
2018-09-19T20:12:44.181Z,61.400002
2018-09-19T20:17:46.518Z,61.5
2018-09-19T20:22:48.844Z,62
2018-09-19T20:27:50.969Z,62.099998
2018-09-19T20:32:53.279Z,62.5
2018-09-19T20:37:55.617Z,62.599998
2018-09-19T20:42:57.902Z,62.900002
2018-09-19T20:48:00.143Z,63.200001
2018-09-19T20:53:02.691Z,63.400002
2018-09-19T20:58:04.734Z,64
2018-09-19T21:03:06.987Z,64.099998
2018-09-19T21:08:09.332Z,64.199997
2018-09-19T21:13:11.757Z,64.699997
2018-09-19T21:18:13.909Z,64.800003
2018-09-19T21:23:16.146Z,65.199997
2018-09-19T21:28:18.548Z,65.400002
2018-09-19T21:33:20.797Z,65.599998
2018-09-19T21:38:23.109Z,66.199997
2018-09-19T21:43:25.434Z,66.400002
2018-09-19T21:48:27.707Z,66.5
2018-09-19T21:53:30.008Z,66.699997
2018-09-19T21:58:32.281Z,66.900002
2018-09-19T22:03:34.573Z,66.900002
2018-09-19T22:08:36.821Z,67.099998
2018-09-19T22:13:39.210Z,67.199997
2018-09-19T22:18:41.451Z,67.5
2018-09-19T22:23:43.741Z,67.699997
2018-09-19T22:28:46.008Z,67.699997
2018-09-19T22:33:48.275Z,67.900002
2018-09-19T22:38:50.663Z,68.5
2018-09-19T22:43:52.891Z,68.599998
2018-09-19T22:48:55.194Z,70
2018-09-19T22:53:57.531Z,70
2018-09-19T22:58:59.873Z,70.599998
2018-09-19T23:04:02.303Z,70.699997
2018-09-19T23:09:04.457Z,71.099998
2018-09-19T23:14:06.703Z,71.5
2018-09-19T23:19:08.987Z,71.5
2018-09-19T23:24:11.314Z,71.400002
2018-09-19T23:29:13.544Z,72.599998
2018-09-19T23:34:15.925Z,73.400002
2018-09-19T23:39:18.192Z,74.5
2018-09-19T23:44:20.503Z,75.5
2018-09-19T23:49:22.799Z,75.900002
2018-09-19T23:54:24.978Z,76.699997
2018-09-19T23:59:27.368Z,77
